createdAt,value
2022-07-31T00:00:51.581Z,80.90
2022-07-31T00:03:56.962Z,83.80
2022-07-31T00:07:02.937Z,79.90
2022-07-31T00:10:11.271Z,83.30
2022-07-31T00:13:18.220Z,78.70
2022-07-31T00:16:43.677Z,83.20
2022-07-31T00:19:48.897Z,78.70
2022-07-31T00:22:55.228Z,80.90
2022-07-31T00:26:01.673Z,81.70
2022-07-31T00:29:07.740Z,84.10
2022-07-31T00:32:14.209Z,83.50
2022-07-31T00:35:19.470Z,83.70
2022-07-31T00:38:26.905Z,84.80
2022-07-31T00:41:42.472Z,83.50
2022-07-31T00:44:49.232Z,83.10
2022-07-31T00:47:55.770Z,85.20
2022-07-31T00:51:01.253Z,83.90
2022-07-31T00:54:07.094Z,82.30
2022-07-31T00:57:16.318Z,83.80
2022-07-31T01:00:23.447Z,83.70
2022-07-31T01:03:28.750Z,82.30
2022-07-31T01:06:33.984Z,85.10
2022-07-31T01:09:41.081Z,84.80
2022-07-31T01:12:54.526Z,83.30
2022-07-31T01:16:00.409Z,83.60
2022-07-31T01:19:19.821Z,80.40
2022-07-31T01:22:45.693Z,80.10
2022-07-31T01:26:03.866Z,81.00
2022-07-31T01:29:27.154Z,79.70
2022-07-31T01:32:38.494Z,81.50
2022-07-31T01:35:50.563Z,83.40
2022-07-31T01:38:57.894Z,82.30
2022-07-31T01:42:06.846Z,84.20
2022-07-31T01:45:15.335Z,83.10
2022-07-31T01:48:20.804Z,82.90
2022-07-31T01:51:27.947Z,85.10
2022-07-31T01:54:34.061Z,84.50
2022-07-31T01:57:43.221Z,86.40
2022-07-31T02:00:52.178Z,84.00
2022-07-31T02:04:00.566Z,85.60
2022-07-31T02:07:09.250Z,86.60
2022-07-31T02:10:17.153Z,87.00
2022-07-31T02:13:24.607Z,87.00
2022-07-31T02:16:31.657Z,87.40
2022-07-31T02:20:00.210Z,83.10
2022-07-31T02:23:07.580Z,87.20
2022-07-31T02:26:13.637Z,86.30
2022-07-31T02:29:20.387Z,87.80
2022-07-31T02:32:28.901Z,88.60
2022-07-31T02:35:34.515Z,89.50
2022-07-31T02:38:42.053Z,88.80
2022-07-31T02:41:48.239Z,88.20
2022-07-31T02:44:53.946Z,90.00
2022-07-31T02:48:00.580Z,89.60
2022-07-31T02:51:06.392Z,90.20
2022-07-31T02:54:13.565Z,89.80
2022-07-31T02:57:18.818Z,90.10
2022-07-31T03:00:27.199Z,89.70
2022-07-31T03:03:35.272Z,89.60
2022-07-31T03:06:41.120Z,90.40
2022-07-31T03:09:47.604Z,90.40
2022-07-31T03:13:18.892Z,90.50
2022-07-31T03:16:24.153Z,91.70
2022-07-31T03:19:31.196Z,91.30
2022-07-31T03:22:36.653Z,90.80
2022-07-31T03:25:43.291Z,91.00
2022-07-31T03:28:48.817Z,91.50
2022-07-31T03:31:54.800Z,91.80
2022-07-31T03:35:01.289Z,91.30
2022-07-31T03:38:40.492Z,91.50
2022-07-31T03:41:33.593Z,90.00
2022-07-31T03:44:41.544Z,91.00
2022-07-31T03:47:46.801Z,91.10
2022-07-31T03:50:53.461Z,92.30
2022-07-31T03:53:58.653Z,92.60
2022-07-31T03:57:27.002Z,93.10
2022-07-31T04:00:34.854Z,93.00
2022-07-31T04:03:42.804Z,93.00
2022-07-31T04:07:08.185Z,92.90
2022-07-31T04:10:13.777Z,93.50
2022-07-31T04:13:19.192Z,93.10
2022-07-31T04:16:24.471Z,92.80
2022-07-31T04:19:31.110Z,93.40
2022-07-31T04:22:38.203Z,93.60
2022-07-31T04:25:50.350Z,94.00
2022-07-31T04:29:07.728Z,93.20
2022-07-31T04:32:14.513Z,92.60
2022-07-31T04:35:26.308Z,92.50
2022-07-31T04:38:32.910Z,93.90
2022-07-31T04:41:38.141Z,93.30
2022-07-31T04:44:45.236Z,94.60
2022-07-31T04:47:50.885Z,94.50
2022-07-31T04:50:56.057Z,94.80
2022-07-31T04:54:02.601Z,94.50
2022-07-31T04:57:08.057Z,94.80
2022-07-31T05:00:14.936Z,95.40
2022-07-31T05:03:20.246Z,96.10
2022-07-31T05:06:35.463Z,96.20
2022-07-31T05:09:42.640Z,94.30
2022-07-31T05:12:48.964Z,95.00
2022-07-31T05:15:54.970Z,93.60
2022-07-31T05:19:01.799Z,95.70
2022-07-31T05:22:25.531Z,95.00
2022-07-31T05:26:05.304Z,95.50
2022-07-31T05:29:10.443Z,95.50
2022-07-31T05:32:16.147Z,95.60
2022-07-31T05:35:22.207Z,94.30
2022-07-31T05:38:28.186Z,94.30
2022-07-31T05:42:03.799Z,95.50
2022-07-31T05:45:41.344Z,95.30
2022-07-31T05:48:47.494Z,96.80
2022-07-31T05:51:54.556Z,95.30
2022-07-31T05:54:59.935Z,95.80
2022-07-31T05:58:24.884Z,94.50
2022-07-31T06:01:30.968Z,94.00
2022-07-31T06:04:36.131Z,92.50
2022-07-31T06:07:41.647Z,92.90
2022-07-31T06:10:56.783Z,92.90
2022-07-31T06:14:03.557Z,92.30
2022-07-31T06:17:40.595Z,91.70
2022-07-31T06:20:59.969Z,90.70
2022-07-31T06:24:06.421Z,91.00
2022-07-31T06:27:33.306Z,90.10
2022-07-31T06:30:41.113Z,89.10
2022-07-31T06:33:48.238Z,89.10
2022-07-31T06:36:55.620Z,87.70
2022-07-31T06:40:01.405Z,87.40
2022-07-31T06:43:35.734Z,88.00
2022-07-31T06:47:23.530Z,86.60
2022-07-31T06:50:28.989Z,85.80
2022-07-31T06:54:10.053Z,86.70
2022-07-31T06:57:16.373Z,87.30
2022-07-31T07:00:22.528Z,88.30
2022-07-31T07:03:31.496Z,86.50
2022-07-31T07:06:36.825Z,86.60
2022-07-31T07:09:41.945Z,87.20
2022-07-31T07:12:54.392Z,86.80
2022-07-31T07:16:00.254Z,85.00
2022-07-31T07:19:07.329Z,86.00
2022-07-31T07:22:13.524Z,84.70
2022-07-31T07:25:20.564Z,84.60
2022-07-31T07:28:30.713Z,83.80
2022-07-31T07:31:39.261Z,85.00
2022-07-31T07:34:46.315Z,83.40
2022-07-31T07:38:09.357Z,83.40
2022-07-31T07:41:15.425Z,83.00
2022-07-31T07:44:23.905Z,84.10
2022-07-31T07:48:02.819Z,81.80
2022-07-31T07:50:57.827Z,81.90
2022-07-31T07:54:08.776Z,81.80
2022-07-31T07:57:52.185Z,80.50
2022-07-31T08:01:20.868Z,80.90
2022-07-31T08:04:31.694Z,79.40
2022-07-31T08:07:41.810Z,79.90
2022-07-31T08:11:06.608Z,79.70
2022-07-31T08:14:35.627Z,80.20
2022-07-31T08:18:03.669Z,80.00
2022-07-31T08:21:09.277Z,79.50
2022-07-31T08:24:16.868Z,79.30
2022-07-31T08:27:40.516Z,78.50
2022-07-31T08:30:47.682Z,76.10
2022-07-31T08:33:57.079Z,75.50
2022-07-31T08:37:52.553Z,74.00
2022-07-31T08:40:31.434Z,72.10
2022-07-31T08:44:02.930Z,71.30
2022-07-31T08:47:13.195Z,72.00
2022-07-31T08:50:18.838Z,69.10
2022-07-31T08:53:25.223Z,65.30
2022-07-31T08:56:46.446Z,62.80
2022-07-31T08:59:54.745Z,59.50
2022-07-31T09:03:01.334Z,58.80
2022-07-31T09:06:15.986Z,59.50
2022-07-31T09:09:21.186Z,59.00
2022-07-31T09:12:34.805Z,59.30
2022-07-31T09:15:45.259Z,62.40
2022-07-31T09:18:58.680Z,64.10
2022-07-31T09:22:08.441Z,63.60
2022-07-31T09:25:19.228Z,63.30
2022-07-31T09:28:35.779Z,62.30
2022-07-31T09:31:41.434Z,63.60
2022-07-31T09:34:55.507Z,63.50
2022-07-31T09:38:00.891Z,63.40
2022-07-31T09:41:58.133Z,63.80
2022-07-31T09:45:19.154Z,64.40
2022-07-31T09:48:26.569Z,65.30
2022-07-31T09:51:40.831Z,66.00
2022-07-31T09:54:47.864Z,64.20
2022-07-31T09:58:06.665Z,62.30
2022-07-31T10:01:18.352Z,64.50
2022-07-31T10:04:24.572Z,62.10
2022-07-31T10:07:35.789Z,62.50
2022-07-31T10:11:04.516Z,61.30
2022-07-31T10:14:23.682Z,59.60
2022-07-31T10:17:35.927Z,60.00
2022-07-31T10:20:44.192Z,61.00
2022-07-31T10:24:27.393Z,59.30
2022-07-31T10:27:39.343Z,59.60
2022-07-31T10:30:49.053Z,59.80
2022-07-31T10:33:55.981Z,61.30
2022-07-31T10:37:24.153Z,59.60
2022-07-31T10:40:53.148Z,58.10
2022-07-31T10:44:02.163Z,58.00
2022-07-31T10:47:40.083Z,58.40
2022-07-31T10:51:09.683Z,58.70
2022-07-31T10:54:41.624Z,58.40
2022-07-31T10:58:12.666Z,58.00
2022-07-31T11:01:29.562Z,56.50
2022-07-31T11:05:13.300Z,56.30
2022-07-31T11:08:51.593Z,55.90
2022-07-31T11:12:22.273Z,55.40
2022-07-31T11:15:53.736Z,55.60
2022-07-31T11:19:18.020Z,55.60
2022-07-31T11:22:32.019Z,54.70
2022-07-31T11:25:40.206Z,53.20
2022-07-31T11:28:45.800Z,53.90
2022-07-31T11:31:51.240Z,54.00
2022-07-31T11:34:58.360Z,53.70
2022-07-31T11:38:03.565Z,52.10
2022-07-31T11:41:14.275Z,50.50
2022-07-31T11:44:22.677Z,48.20
2022-07-31T11:48:12.040Z,47.10
2022-07-31T11:51:03.738Z,46.60
2022-07-31T11:54:09.014Z,47.20
2022-07-31T11:57:15.848Z,45.70
2022-07-31T12:00:26.281Z,44.80
2022-07-31T12:03:37.323Z,45.10
2022-07-31T12:06:42.568Z,45.30
2022-07-31T12:10:01.123Z,43.80
2022-07-31T12:13:16.175Z,44.30
2022-07-31T12:16:21.488Z,45.10
2022-07-31T12:19:31.476Z,45.60
2022-07-31T12:22:43.086Z,42.50
2022-07-31T12:25:48.463Z,42.60
2022-07-31T12:29:02.640Z,41.70
2022-07-31T12:32:09.164Z,42.60
2022-07-31T12:35:14.724Z,43.20
2022-07-31T12:38:40.610Z,42.80
2022-07-31T12:41:50.608Z,41.20
2022-07-31T12:45:01.136Z,40.30
2022-07-31T12:48:24.705Z,39.60
2022-07-31T12:51:45.853Z,40.10
2022-07-31T12:54:52.140Z,39.00
2022-07-31T12:57:58.115Z,39.40
2022-07-31T13:01:04.725Z,37.60
2022-07-31T13:04:18.272Z,37.80
2022-07-31T13:07:24.804Z,39.40
2022-07-31T13:10:32.386Z,37.10
2022-07-31T13:13:38.418Z,39.10
2022-07-31T13:16:45.089Z,37.80
2022-07-31T13:19:50.410Z,37.70
2022-07-31T13:22:55.596Z,36.70
2022-07-31T13:26:01.279Z,36.30
2022-07-31T13:29:07.480Z,36.10
2022-07-31T13:32:15.316Z,37.60
2022-07-31T13:35:27.858Z,38.10
2022-07-31T13:38:35.606Z,38.00
2022-07-31T13:41:41.954Z,38.50
2022-07-31T13:44:47.240Z,39.00
2022-07-31T13:47:58.264Z,37.90
2022-07-31T13:51:06.058Z,38.50
2022-07-31T13:54:14.154Z,39.50
2022-07-31T13:57:19.543Z,38.30
2022-07-31T14:00:24.626Z,39.70
2022-07-31T14:03:32.036Z,37.60
2022-07-31T14:06:39.924Z,37.00
2022-07-31T14:09:47.140Z,36.40
2022-07-31T14:13:00.408Z,36.50
2022-07-31T14:16:06.584Z,38.10
2022-07-31T14:19:13.185Z,36.90
2022-07-31T14:22:18.485Z,36.20
2022-07-31T14:25:23.785Z,36.30
2022-07-31T14:28:28.988Z,34.70
2022-07-31T14:31:34.501Z,34.90
2022-07-31T14:34:41.170Z,33.40
2022-07-31T14:37:47.837Z,39.10
2022-07-31T14:40:54.054Z,37.70
2022-07-31T14:43:59.285Z,38.00
2022-07-31T14:47:04.656Z,37.00
2022-07-31T14:50:17.479Z,38.10
2022-07-31T14:53:24.852Z,37.20
2022-07-31T14:56:58.492Z,36.10
2022-07-31T14:59:55.524Z,36.40
2022-07-31T15:03:00.770Z,36.60
2022-07-31T15:06:41.932Z,38.60
2022-07-31T15:09:33.396Z,39.10
2022-07-31T15:12:39.068Z,36.50
2022-07-31T15:15:45.382Z,36.70
2022-07-31T15:18:51.680Z,37.10
2022-07-31T15:22:10.345Z,39.40
2022-07-31T15:25:21.695Z,38.70
2022-07-31T15:28:27.043Z,38.90
2022-07-31T15:31:32.432Z,38.70
2022-07-31T15:34:37.909Z,39.10
2022-07-31T15:37:45.529Z,38.50
2022-07-31T15:40:50.820Z,40.30
2022-07-31T15:43:56.132Z,38.60
2022-07-31T15:47:01.357Z,38.30
2022-07-31T15:50:08.577Z,40.40
2022-07-31T15:53:15.449Z,40.00
2022-07-31T15:56:21.258Z,39.80
2022-07-31T15:59:26.469Z,39.40
2022-07-31T16:02:31.725Z,40.10
2022-07-31T16:05:38.824Z,40.10
2022-07-31T16:08:45.625Z,40.50
2022-07-31T16:12:04.864Z,40.90
2022-07-31T16:15:12.830Z,39.90
2022-07-31T16:18:18.851Z,41.20
2022-07-31T16:21:24.513Z,42.70
2022-07-31T16:24:31.079Z,41.00
2022-07-31T16:27:37.256Z,42.00
2022-07-31T16:30:42.454Z,42.80
2022-07-31T16:33:50.955Z,42.90
2022-07-31T16:36:56.309Z,44.70
2022-07-31T16:40:02.845Z,44.50
2022-07-31T16:43:50.706Z,46.10
2022-07-31T16:46:35.388Z,51.50
2022-07-31T16:49:41.847Z,54.80
2022-07-31T16:52:50.124Z,58.00
2022-07-31T16:56:01.908Z,58.60
2022-07-31T16:59:07.704Z,59.70
2022-07-31T17:02:13.121Z,60.90
2022-07-31T17:05:18.585Z,61.90
2022-07-31T17:08:23.787Z,63.00
2022-07-31T17:11:30.465Z,63.40
2022-07-31T17:14:36.069Z,65.10
2022-07-31T17:17:41.906Z,64.80
2022-07-31T17:20:47.936Z,65.80
2022-07-31T17:23:53.655Z,67.50
2022-07-31T17:27:04.918Z,66.80
2022-07-31T17:30:12.580Z,67.50
2022-07-31T17:33:18.065Z,68.70
2022-07-31T17:36:23.636Z,69.20
2022-07-31T17:39:30.992Z,69.50
2022-07-31T17:42:37.760Z,69.70
2022-07-31T17:45:59.852Z,71.70
2022-07-31T17:49:11.658Z,71.10
2022-07-31T17:52:25.926Z,72.40
2022-07-31T17:55:31.113Z,71.60
2022-07-31T17:58:37.669Z,72.80
2022-07-31T18:01:43.071Z,74.50
2022-07-31T18:04:57.000Z,74.90
2022-07-31T18:08:02.131Z,75.90
2022-07-31T18:11:08.353Z,76.60
2022-07-31T18:14:15.135Z,77.20
2022-07-31T18:17:23.623Z,77.40
2022-07-31T18:20:28.941Z,78.00
2022-07-31T18:23:34.117Z,78.70
2022-07-31T18:26:39.570Z,79.70
2022-07-31T18:29:54.296Z,79.60
2022-07-31T18:33:01.586Z,79.40
2022-07-31T18:36:07.166Z,80.40
2022-07-31T18:39:13.346Z,80.50
2022-07-31T18:42:18.693Z,80.30
2022-07-31T18:45:25.211Z,80.90
2022-07-31T18:48:32.063Z,81.10
2022-07-31T18:51:37.758Z,81.70
2022-07-31T18:54:43.357Z,82.60
2022-07-31T18:57:50.640Z,82.70
2022-07-31T19:00:57.314Z,82.40
2022-07-31T19:04:02.704Z,82.60
2022-07-31T19:07:08.793Z,84.00
2022-07-31T19:10:31.274Z,82.80
2022-07-31T19:13:36.872Z,83.50
2022-07-31T19:16:43.670Z,84.50
2022-07-31T19:19:54.915Z,85.00
2022-07-31T19:23:05.774Z,85.10
2022-07-31T19:26:18.237Z,86.00
2022-07-31T19:29:24.541Z,86.70
2022-07-31T19:32:32.483Z,86.80
2022-07-31T19:35:55.459Z,86.90
2022-07-31T19:39:03.265Z,87.90
2022-07-31T19:42:11.704Z,87.20
2022-07-31T19:45:18.562Z,88.50
2022-07-31T19:48:25.339Z,89.70
2022-07-31T19:51:31.491Z,89.20
2022-07-31T19:54:36.990Z,88.00
2022-07-31T19:57:43.630Z,88.60
2022-07-31T20:00:49.028Z,89.10
2022-07-31T20:03:57.572Z,89.70
2022-07-31T20:07:03.176Z,90.20
2022-07-31T20:10:10.114Z,90.10
2022-07-31T20:13:15.364Z,90.40
2022-07-31T20:16:20.675Z,90.70
2022-07-31T20:19:27.307Z,90.50
2022-07-31T20:22:32.583Z,90.10
2022-07-31T20:25:39.087Z,89.80
2022-07-31T20:28:44.477Z,90.80
2022-07-31T20:31:50.542Z,90.40
2022-07-31T20:34:57.136Z,90.50
2022-07-31T20:38:02.426Z,90.80
2022-07-31T20:41:07.556Z,91.00
2022-07-31T20:44:12.754Z,91.30
2022-07-31T20:47:21.576Z,91.50
2022-07-31T20:50:31.663Z,91.70
2022-07-31T20:53:36.848Z,92.10
2022-07-31T20:56:42.806Z,92.60
2022-07-31T20:59:48.654Z,92.80
2022-07-31T21:02:53.811Z,92.90
2022-07-31T21:06:01.193Z,93.40
2022-07-31T21:09:07.765Z,93.80
2022-07-31T21:12:12.957Z,94.40
2022-07-31T21:15:40.889Z,94.50
2022-07-31T21:18:43.808Z,94.50
2022-07-31T21:21:51.221Z,94.60
2022-07-31T21:24:57.085Z,94.90
2022-07-31T21:28:02.987Z,95.20
2022-07-31T21:31:08.645Z,95.40
2022-07-31T21:34:14.757Z,95.70
2022-07-31T21:37:21.582Z,95.80
2022-07-31T21:40:28.905Z,96.20
2022-07-31T21:43:47.259Z,96.40
2022-07-31T21:47:03.213Z,96.40
2022-07-31T21:50:10.040Z,96.40
2022-07-31T21:53:16.976Z,96.50
2022-07-31T21:56:22.092Z,96.50
2022-07-31T21:59:28.199Z,96.80
2022-07-31T22:02:33.981Z,97.00
2022-07-31T22:05:56.748Z,97.10
2022-07-31T22:09:03.282Z,97.60
2022-07-31T22:12:09.969Z,97.50
2022-07-31T22:15:16.178Z,97.70
2022-07-31T22:18:21.899Z,97.70
2022-07-31T22:21:27.703Z,98.10
2022-07-31T22:24:35.122Z,98.00
2022-07-31T22:27:59.248Z,98.30
2022-07-31T22:31:05.156Z,98.40
2022-07-31T22:34:12.387Z,98.70
2022-07-31T22:37:18.360Z,98.80
2022-07-31T22:40:25.624Z,99.10
2022-07-31T22:44:11.286Z,99.30
2022-07-31T22:46:57.401Z,99.70
2022-07-31T22:50:03.204Z,99.80
2022-07-31T22:53:09.504Z,99.70
2022-07-31T22:56:16.078Z,99.80
2022-07-31T22:59:21.783Z,99.90
2022-07-31T23:02:27.522Z,99.90
2022-07-31T23:06:02.792Z,99.90
2022-07-31T23:08:58.169Z,99.90
2022-07-31T23:12:06.145Z,99.90
2022-07-31T23:15:14.214Z,99.90
2022-07-31T23:18:19.357Z,99.90
2022-07-31T23:21:25.077Z,99.90
2022-07-31T23:24:30.602Z,99.90
2022-07-31T23:27:37.373Z,99.90
2022-07-31T23:30:43.340Z,99.90
2022-07-31T23:33:49.458Z,99.90
2022-07-31T23:36:54.592Z,99.90
2022-07-31T23:39:59.774Z,99.90
2022-07-31T23:43:06.588Z,99.90
2022-07-31T23:46:13.048Z,99.90
2022-07-31T23:49:22.000Z,99.90
2022-07-31T23:52:27.610Z,99.90
2022-07-31T23:55:32.907Z,99.90
2022-07-31T23:58:44.933Z,99.90
